TFM - Tactical Decision Aid
ID: Runway Winds: CIG/VIS Threshold:

KDNL - Augusta/Daniel Fld, GA, US

Updated at: 0938 UTC 26 Jan 2020
Latest TAF at: 0922 UTC 26 Jan 2020

TAF Board

Time0853Z 26/10Z 26/11Z 26/12Z 26/13Z 26/14Z 26/15Z 26/16Z 26/17Z 26/18Z 26/19Z 26/20Z 26/21Z 26/22Z>>
Type OBS PRVL PRVL PRVL PRVL PRVL PRVL PRVL PRVL PRVL PRVL PRVL PRVL PRVL
VIS 10 >6 >6 >6 >6 >6 >6 >6 >6 >6 >6 >6 >6 >6
CIG -- 250 250 250 250 -- -- -- -- -- -- -- -- --
Cover CLR BKN BKN BKN BKN SCT SCT SCT SCT SCT SCT SCT SCT SCT
FltCat VFR VFR VFR VFR VFR VFR VFR VFR VFR VFR VFR VFR VFR VFR
WX -- -- -- -- -- -- -- -- -- -- -- -- -- --
WDir 290 280 280 280 280 300 300 300 300 300 300 300 300 300
WSpd 6 7 7 7 7 7 7 7 7 7 7 7 7 7
WGst -- -- -- -- -- -- -- -- -- -- -- -- -- --

TDA Impact Legend

  None Marginal Slight Moderate High
Visibility (sm) >5 3≤X≤5 2≤X<3 1≤X<2 <1
Ceiling (100 ft) >30 10≤X≤30 8≤X<10 5≤X<8 <5
Wind Speed (kt) <15 15≤X<25 25≤X<30 ≥30
Wind Gust (kt) <15 15≤X<25 25≤X<35 ≥35
Weather No Wx Reported VCTS -TS,-FZRA TS,FZRA +TS,+FZRA
TAF
KDNL 260922Z 2609/2706 28007KT P6SM BKN250
  FM261400 30007KT P6SM SCT250
  FM270500 VRB04KT P6SM BKN050 OVC120


METAR
KDNL 260853Z AUTO 29006KT 10SM CLR 06/M01 A3005 RMK AO2 SLP173 T00561006 58006
KDNL 260753Z AUTO 29005KT 10SM CLR 06/00 A3006 RMK AO2 SLP178 T00560000
KDNL 260653Z AUTO VRB04KT 10SM CLR 06/M01 A3006 RMK AO2 SLP177 T00561006

Radar Display
Forecast Discussion